sensor_id;sensor_type;location;lat;lon;timestamp;P1;durP1;ratioP1;P2;durP2;ratioP2
37273;SDS011;23161;51.250;5.554;2024-03-23T00:54:08;12.23;;;7.53;;
37273;SDS011;23161;51.250;5.554;2024-03-23T00:55:39;9.93;;;5.13;;
37273;SDS011;23161;51.250;5.554;2024-03-23T00:57:10;13.18;;;7.68;;
37273;SDS011;23161;51.250;5.554;2024-03-23T00:58:41;12.68;;;3.83;;
37273;SDS011;23161;51.250;5.554;2024-03-23T01:00:12;9.25;;;3.55;;
37273;SDS011;23161;51.250;5.554;2024-03-23T01:01:44;14.13;;;6.10;;
37273;SDS011;23161;51.250;5.554;2024-03-23T01:03:15;15.52;;;8.07;;
37273;SDS011;23161;51.250;5.554;2024-03-23T01:04:46;12.57;;;6.80;;
37273;SDS011;23161;51.250;5.554;2024-03-23T01:06:18;10.57;;;4.63;;
37273;SDS011;23161;51.250;5.554;2024-03-23T01:07:49;9.13;;;5.28;;
37273;SDS011;23161;51.250;5.554;2024-03-23T01:09:20;10.65;;;5.05;;
37273;SDS011;23161;51.250;5.554;2024-03-23T01:10:56;20.58;;;5.00;;
37273;SDS011;23161;51.250;5.554;2024-03-23T01:12:27;12.48;;;5.85;;
37273;SDS011;23161;51.250;5.554;2024-03-23T01:13:58;15.15;;;6.38;;
37273;SDS011;23161;51.250;5.554;2024-03-23T01:15:29;9.38;;;4.35;;
37273;SDS011;23161;51.250;5.554;2024-03-23T01:17:00;10.73;;;4.78;;
37273;SDS011;23161;51.250;5.554;2024-03-23T01:18:32;20.67;;;4.88;;
37273;SDS011;23161;51.250;5.554;2024-03-23T01:20:03;7.75;;;5.30;;
37273;SDS011;23161;51.250;5.554;2024-03-23T01:21:36;14.93;;;4.97;;
37273;SDS011;23161;51.250;5.554;2024-03-23T01:23:07;10.13;;;3.95;;
37273;SDS011;23161;51.250;5.554;2024-03-23T01:24:38;9.85;;;6.22;;
37273;SDS011;23161;51.250;5.554;2024-03-23T01:26:09;16.30;;;4.90;;
37273;SDS011;23161;51.250;5.554;2024-03-23T01:27:40;11.57;;;4.28;;
37273;SDS011;23161;51.250;5.554;2024-03-23T01:29:11;11.88;;;4.60;;
37273;SDS011;23161;51.250;5.554;2024-03-23T01:30:43;12.57;;;4.95;;
37273;SDS011;23161;51.250;5.554;2024-03-23T01:32:14;11.70;;;5.20;;
37273;SDS011;23161;51.250;5.554;2024-03-23T01:33:45;8.68;;;5.88;;
37273;SDS011;23161;51.250;5.554;2024-03-23T01:35:16;13.18;;;4.55;;
37273;SDS011;23161;51.250;5.554;2024-03-23T01:36:47;10.23;;;4.95;;
37273;SDS011;23161;51.250;5.554;2024-03-23T01:38:18;11.50;;;4.75;;
37273;SDS011;23161;51.250;5.554;2024-03-23T01:39:49;7.38;;;4.45;;
37273;SDS011;23161;51.250;5.554;2024-03-23T01:41:21;5.88;;;5.07;;
37273;SDS011;23161;51.250;5.554;2024-03-23T01:42:55;7.50;;;4.47;;
37273;SDS011;23161;51.250;5.554;2024-03-23T01:44:26;8.00;;;3.65;;
37273;SDS011;23161;51.250;5.554;2024-03-23T01:45:58;12.48;;;3.58;;
37273;SDS011;23161;51.250;5.554;2024-03-23T01:47:29;15.30;;;5.75;;
37273;SDS011;23161;51.250;5.554;2024-03-23T01:49:00;7.30;;;4.45;;
37273;SDS011;23161;51.250;5.554;2024-03-23T01:50:31;9.65;;;6.90;;
37273;SDS011;23161;51.250;5.554;2024-03-23T01:52:04;17.40;;;6.40;;
37273;SDS011;23161;51.250;5.554;2024-03-23T01:53:35;5.45;;;3.55;;
37273;SDS011;23161;51.250;5.554;2024-03-23T01:55:06;6.28;;;4.22;;
37273;SDS011;23161;51.250;5.554;2024-03-23T01:56:37;12.80;;;5.35;;
37273;SDS011;23161;51.250;5.554;2024-03-23T01:58:08;16.40;;;6.05;;
37273;SDS011;23161;51.250;5.554;2024-03-23T01:59:40;9.45;;;4.80;;
37273;SDS011;23161;51.250;5.554;2024-03-23T02:01:13;8.05;;;4.00;;
37273;SDS011;23161;51.250;5.554;2024-03-23T02:02:44;9.18;;;4.65;;
37273;SDS011;23161;51.250;5.554;2024-03-23T02:04:16;13.73;;;6.15;;
37273;SDS011;23161;51.250;5.554;2024-03-23T02:05:47;10.40;;;5.22;;
37273;SDS011;23161;51.250;5.554;2024-03-23T02:07:18;6.50;;;4.90;;
37273;SDS011;23161;51.250;5.554;2024-03-23T02:08:49;9.95;;;5.88;;
37273;SDS011;23161;51.250;5.554;2024-03-23T02:10:21;6.45;;;4.38;;
37273;SDS011;23161;51.250;5.554;2024-03-23T02:11:52;17.73;;;6.05;;
37273;SDS011;23161;51.250;5.554;2024-03-23T02:13:23;17.75;;;3.92;;
37273;SDS011;23161;51.250;5.554;2024-03-23T02:14:54;8.05;;;6.00;;
37273;SDS011;23161;51.250;5.554;2024-03-23T02:16:25;10.25;;;5.90;;
37273;SDS011;23161;51.250;5.554;2024-03-23T02:17:56;9.07;;;4.53;;
37273;SDS011;23161;51.250;5.554;2024-03-23T02:19:27;7.80;;;6.32;;
37273;SDS011;23161;51.250;5.554;2024-03-23T02:20:59;6.25;;;4.40;;
37273;SDS011;23161;51.250;5.554;2024-03-23T02:22:36;14.88;;;4.22;;
37273;SDS011;23161;51.250;5.554;2024-03-23T02:24:08;8.00;;;4.90;;
37273;SDS011;23161;51.250;5.554;2024-03-23T02:25:39;17.55;;;5.47;;
37273;SDS011;23161;51.250;5.554;2024-03-23T02:27:10;14.07;;;5.50;;
37273;SDS011;23161;51.250;5.554;2024-03-23T02:28:42;9.77;;;3.97;;
37273;SDS011;23161;51.250;5.554;2024-03-23T02:30:13;14.73;;;7.00;;
37273;SDS011;23161;51.250;5.554;2024-03-23T02:31:44;10.48;;;5.80;;
37273;SDS011;23161;51.250;5.554;2024-03-23T02:33:15;12.50;;;5.93;;
37273;SDS011;23161;51.250;5.554;2024-03-23T02:34:46;17.95;;;7.07;;
37273;SDS011;23161;51.250;5.554;2024-03-23T02:36:17;11.35;;;5.53;;
37273;SDS011;23161;51.250;5.554;2024-03-23T02:37:51;12.13;;;4.75;;
37273;SDS011;23161;51.250;5.554;2024-03-23T02:39:23;10.95;;;6.80;;
37273;SDS011;23161;51.250;5.554;2024-03-23T02:40:54;18.58;;;6.22;;
37273;SDS011;23161;51.250;5.554;2024-03-23T02:42:25;12.63;;;6.63;;
37273;SDS011;23161;51.250;5.554;2024-03-23T02:43:56;9.80;;;6.00;;
37273;SDS011;23161;51.250;5.554;2024-03-23T02:45:27;14.00;;;5.07;;
37273;SDS011;23161;51.250;5.554;2024-03-23T02:46:58;11.35;;;4.97;;
37273;SDS011;23161;51.250;5.554;2024-03-23T02:48:29;6.28;;;4.20;;
37273;SDS011;23161;51.250;5.554;2024-03-23T02:50:01;15.93;;;5.82;;
37273;SDS011;23161;51.250;5.554;2024-03-23T02:51:32;10.73;;;4.47;;
37273;SDS011;23161;51.250;5.554;2024-03-23T02:53:03;6.38;;;3.08;;
37273;SDS011;23161;51.250;5.554;2024-03-23T02:54:34;4.70;;;3.63;;
37273;SDS011;23161;51.250;5.554;2024-03-23T02:56:06;9.77;;;4.38;;
37273;SDS011;23161;51.250;5.554;2024-03-23T02:57:38;3.15;;;2.38;;
37273;SDS011;23161;51.250;5.554;2024-03-23T02:59:09;7.20;;;3.28;;
37273;SDS011;23161;51.250;5.554;2024-03-23T03:00:40;7.78;;;3.97;;
37273;SDS011;23161;51.250;5.554;2024-03-23T03:02:13;4.88;;;4.13;;
37273;SDS011;23161;51.250;5.554;2024-03-23T03:03:44;6.30;;;2.90;;
37273;SDS011;23161;51.250;5.554;2024-03-23T03:05:15;15.00;;;2.80;;
37273;SDS011;23161;51.250;5.554;2024-03-23T03:06:47;10.35;;;4.43;;
37273;SDS011;23161;51.250;5.554;2024-03-23T03:08:18;7.03;;;4.95;;
37273;SDS011;23161;51.250;5.554;2024-03-23T03:09:49;7.55;;;5.00;;
37273;SDS011;23161;51.250;5.554;2024-03-23T03:11:21;7.60;;;3.08;;
37273;SDS011;23161;51.250;5.554;2024-03-23T03:12:52;7.18;;;3.28;;
37273;SDS011;23161;51.250;5.554;2024-03-23T03:14:23;5.32;;;3.17;;
37273;SDS011;23161;51.250;5.554;2024-03-23T03:15:54;8.73;;;3.67;;
37273;SDS011;23161;51.250;5.554;2024-03-23T03:17:25;7.18;;;3.60;;
37273;SDS011;23161;51.250;5.554;2024-03-23T03:18:56;7.25;;;5.53;;
37273;SDS011;23161;51.250;5.554;2024-03-23T03:20:27;8.10;;;3.90;;
37273;SDS011;23161;51.250;5.554;2024-03-23T03:21:58;7.75;;;5.40;;
37273;SDS011;23161;51.250;5.554;2024-03-23T03:23:29;17.65;;;5.00;;
37273;SDS011;23161;51.250;5.554;2024-03-23T03:25:00;14.30;;;5.75;;
37273;SDS011;23161;51.250;5.554;2024-03-23T03:26:32;10.93;;;4.75;;
37273;SDS011;23161;51.250;5.554;2024-03-23T03:28:03;10.55;;;6.18;;
37273;SDS011;23161;51.250;5.554;2024-03-23T03:29:35;9.25;;;5.22;;
37273;SDS011;23161;51.250;5.554;2024-03-23T03:31:06;5.97;;;4.43;;
37273;SDS011;23161;51.250;5.554;2024-03-23T03:32:37;9.45;;;5.50;;
37273;SDS011;23161;51.250;5.554;2024-03-23T03:34:08;11.20;;;5.43;;
37273;SDS011;23161;51.250;5.554;2024-03-23T03:35:39;7.50;;;5.57;;
37273;SDS011;23161;51.250;5.554;2024-03-23T03:37:10;10.60;;;5.43;;
37273;SDS011;23161;51.250;5.554;2024-03-23T03:38:42;21.85;;;6.55;;
37273;SDS011;23161;51.250;5.554;2024-03-23T03:40:13;9.65;;;5.35;;
37273;SDS011;23161;51.250;5.554;2024-03-23T03:41:47;21.40;;;8.02;;
37273;SDS011;23161;51.250;5.554;2024-03-23T03:43:18;15.60;;;7.35;;
37273;SDS011;23161;51.250;5.554;2024-03-23T03:44:50;9.07;;;7.28;;
37273;SDS011;23161;51.250;5.554;2024-03-23T03:46:21;9.68;;;5.20;;
37273;SDS011;23161;51.250;5.554;2024-03-23T03:47:53;8.90;;;6.50;;
37273;SDS011;23161;51.250;5.554;2024-03-23T03:49:24;12.27;;;7.65;;
37273;SDS011;23161;51.250;5.554;2024-03-23T03:50:55;9.75;;;8.05;;
37273;SDS011;23161;51.250;5.554;2024-03-23T03:52:26;23.35;;;8.55;;
37273;SDS011;23161;51.250;5.554;2024-03-23T03:53:57;13.05;;;6.65;;
37273;SDS011;23161;51.250;5.554;2024-03-23T03:55:28;10.13;;;4.63;;
37273;SDS011;23161;51.250;5.554;2024-03-23T03:56:59;27.65;;;8.57;;
37273;SDS011;23161;51.250;5.554;2024-03-23T03:58:31;13.27;;;7.60;;
37273;SDS011;23161;51.250;5.554;2024-03-23T04:00:02;12.80;;;7.70;;
37273;SDS011;23161;51.250;5.554;2024-03-23T04:01:34;15.73;;;8.02;;
37273;SDS011;23161;51.250;5.554;2024-03-23T04:03:05;11.00;;;7.05;;
37273;SDS011;23161;51.250;5.554;2024-03-23T04:04:37;16.20;;;8.07;;
37273;SDS011;23161;51.250;5.554;2024-03-23T04:06:08;9.95;;;7.03;;
37273;SDS011;23161;51.250;5.554;2024-03-23T04:07:39;16.70;;;8.13;;
37273;SDS011;23161;51.250;5.554;2024-03-23T04:09:10;12.18;;;6.63;;
37273;SDS011;23161;51.250;5.554;2024-03-23T04:10:41;21.63;;;12.02;;
37273;SDS011;23161;51.250;5.554;2024-03-23T04:12:12;13.18;;;7.20;;
37273;SDS011;23161;51.250;5.554;2024-03-23T04:13:43;20.40;;;7.22;;
37273;SDS011;23161;51.250;5.554;2024-03-23T04:15:15;27.73;;;8.88;;
37273;SDS011;23161;51.250;5.554;2024-03-23T04:16:46;21.65;;;7.90;;
37273;SDS011;23161;51.250;5.554;2024-03-23T04:18:17;11.00;;;5.95;;
37273;SDS011;23161;51.250;5.554;2024-03-23T04:19:48;14.02;;;7.25;;
37273;SDS011;23161;51.250;5.554;2024-03-23T04:21:21;12.77;;;9.15;;
37273;SDS011;23161;51.250;5.554;2024-03-23T04:22:53;12.65;;;8.40;;
37273;SDS011;23161;51.250;5.554;2024-03-23T04:24:24;16.92;;;7.47;;
37273;SDS011;23161;51.250;5.554;2024-03-23T04:26:01;17.75;;;8.88;;
37273;SDS011;23161;51.250;5.554;2024-03-23T04:27:33;16.02;;;7.20;;
37273;SDS011;23161;51.250;5.554;2024-03-23T04:29:04;20.77;;;9.65;;
37273;SDS011;23161;51.250;5.554;2024-03-23T04:30:35;30.38;;;8.13;;
37273;SDS011;23161;51.250;5.554;2024-03-23T04:32:07;12.52;;;7.22;;
37273;SDS011;23161;51.250;5.554;2024-03-23T04:33:38;13.23;;;8.63;;
37273;SDS011;23161;51.250;5.554;2024-03-23T04:35:09;18.50;;;9.02;;
37273;SDS011;23161;51.250;5.554;2024-03-23T04:36:40;18.88;;;7.60;;
37273;SDS011;23161;51.250;5.554;2024-03-23T04:38:11;15.15;;;8.70;;
37273;SDS011;23161;51.250;5.554;2024-03-23T04:39:43;16.38;;;9.20;;
37273;SDS011;23161;51.250;5.554;2024-03-23T04:41:14;14.75;;;8.88;;
37273;SDS011;23161;51.250;5.554;2024-03-23T04:42:45;15.73;;;10.27;;
37273;SDS011;23161;51.250;5.554;2024-03-23T04:44:16;15.43;;;9.13;;
37273;SDS011;23161;51.250;5.554;2024-03-23T04:45:47;24.08;;;8.63;;
37273;SDS011;23161;51.250;5.554;2024-03-23T04:47:18;16.63;;;9.75;;
37273;SDS011;23161;51.250;5.554;2024-03-23T04:48:49;16.70;;;10.07;;
37273;SDS011;23161;51.250;5.554;2024-03-23T04:50:20;16.90;;;8.20;;
37273;SDS011;23161;51.250;5.554;2024-03-23T04:51:52;19.63;;;12.55;;
37273;SDS011;23161;51.250;5.554;2024-03-23T04:53:23;18.45;;;9.40;;
37273;SDS011;23161;51.250;5.554;2024-03-23T04:54:59;19.92;;;11.57;;
37273;SDS011;23161;51.250;5.554;2024-03-23T04:56:30;22.35;;;10.98;;
37273;SDS011;23161;51.250;5.554;2024-03-23T04:58:01;27.17;;;13.07;;
37273;SDS011;23161;51.250;5.554;2024-03-23T04:59:33;23.73;;;12.13;;
37273;SDS011;23161;51.250;5.554;2024-03-23T05:01:04;15.60;;;12.90;;
37273;SDS011;23161;51.250;5.554;2024-03-23T05:02:35;24.38;;;12.00;;
37273;SDS011;23161;51.250;5.554;2024-03-23T05:04:06;22.75;;;11.23;;
37273;SDS011;23161;51.250;5.554;2024-03-23T05:05:38;16.80;;;11.38;;
37273;SDS011;23161;51.250;5.554;2024-03-23T05:07:09;27.65;;;13.75;;
37273;SDS011;23161;51.250;5.554;2024-03-23T05:08:41;29.33;;;15.10;;
37273;SDS011;23161;51.250;5.554;2024-03-23T05:10:12;26.40;;;13.60;;
37273;SDS011;23161;51.250;5.554;2024-03-23T05:11:43;21.15;;;13.23;;
37273;SDS011;23161;51.250;5.554;2024-03-23T05:13:15;19.35;;;12.32;;
37273;SDS011;23161;51.250;5.554;2024-03-23T05:14:46;26.05;;;12.50;;
37273;SDS011;23161;51.250;5.554;2024-03-23T05:16:17;12.07;;;10.00;;
37273;SDS011;23161;51.250;5.554;2024-03-23T05:17:48;21.75;;;13.85;;
37273;SDS011;23161;51.250;5.554;2024-03-23T05:19:19;16.95;;;12.25;;
37273;SDS011;23161;51.250;5.554;2024-03-23T05:20:55;28.83;;;14.55;;
37273;SDS011;23161;51.250;5.554;2024-03-23T05:22:26;24.52;;;13.23;;
37273;SDS011;23161;51.250;5.554;2024-03-23T05:23:57;25.48;;;13.70;;
37273;SDS011;23161;51.250;5.554;2024-03-23T05:25:28;26.25;;;12.23;;
37273;SDS011;23161;51.250;5.554;2024-03-23T05:26:59;30.58;;;14.18;;
37273;SDS011;23161;51.250;5.554;2024-03-23T05:28:31;31.77;;;14.15;;
37273;SDS011;23161;51.250;5.554;2024-03-23T05:30:02;20.98;;;14.25;;
37273;SDS011;23161;51.250;5.554;2024-03-23T05:31:34;25.23;;;14.05;;
37273;SDS011;23161;51.250;5.554;2024-03-23T05:33:05;16.77;;;13.65;;
37273;SDS011;23161;51.250;5.554;2024-03-23T05:34:37;19.83;;;12.65;;
37273;SDS011;23161;51.250;5.554;2024-03-23T05:36:08;25.98;;;15.73;;
37273;SDS011;23161;51.250;5.554;2024-03-23T05:37:41;19.45;;;13.80;;
37273;SDS011;23161;51.250;5.554;2024-03-23T05:39:12;32.33;;;12.85;;
37273;SDS011;23161;51.250;5.554;2024-03-23T05:40:56;20.52;;;13.60;;
37273;SDS011;23161;51.250;5.554;2024-03-23T05:42:27;15.30;;;11.50;;
37273;SDS011;23161;51.250;5.554;2024-03-23T05:43:58;25.10;;;13.55;;
37273;SDS011;23161;51.250;5.554;2024-03-23T05:45:29;26.40;;;16.05;;
37273;SDS011;23161;51.250;5.554;2024-03-23T05:47:01;22.67;;;15.63;;
37273;SDS011;23161;51.250;5.554;2024-03-23T05:48:32;28.23;;;15.20;;
37273;SDS011;23161;51.250;5.554;2024-03-23T05:50:04;27.58;;;14.35;;
37273;SDS011;23161;51.250;5.554;2024-03-23T05:51:35;25.52;;;13.80;;
37273;SDS011;23161;51.250;5.554;2024-03-23T05:53:06;17.92;;;11.15;;
37273;SDS011;23161;51.250;5.554;2024-03-23T05:54:38;23.63;;;13.30;;
37273;SDS011;23161;51.250;5.554;2024-03-23T05:56:09;33.35;;;14.95;;
37273;SDS011;23161;51.250;5.554;2024-03-23T05:57:40;25.13;;;14.05;;
37273;SDS011;23161;51.250;5.554;2024-03-23T05:59:12;33.97;;;17.48;;
37273;SDS011;23161;51.250;5.554;2024-03-23T06:00:43;20.85;;;14.80;;
37273;SDS011;23161;51.250;5.554;2024-03-23T06:02:14;21.17;;;15.98;;
37273;SDS011;23161;51.250;5.554;2024-03-23T06:03:45;29.90;;;13.98;;
37273;SDS011;23161;51.250;5.554;2024-03-23T06:05:17;29.00;;;13.10;;
37273;SDS011;23161;51.250;5.554;2024-03-23T06:06:50;21.10;;;15.43;;
37273;SDS011;23161;51.250;5.554;2024-03-23T06:08:22;33.67;;;16.90;;
37273;SDS011;23161;51.250;5.554;2024-03-23T06:09:54;28.90;;;16.92;;
37273;SDS011;23161;51.250;5.554;2024-03-23T06:11:26;30.45;;;16.63;;
37273;SDS011;23161;51.250;5.554;2024-03-23T06:12:57;23.35;;;15.48;;
37273;SDS011;23161;51.250;5.554;2024-03-23T06:14:30;21.05;;;15.15;;
37273;SDS011;23161;51.250;5.554;2024-03-23T06:16:01;27.13;;;14.25;;
37273;SDS011;23161;51.250;5.554;2024-03-23T06:17:32;21.75;;;13.52;;
37273;SDS011;23161;51.250;5.554;2024-03-23T06:19:04;27.23;;;15.05;;
37273;SDS011;23161;51.250;5.554;2024-03-23T06:20:37;22.52;;;15.23;;
37273;SDS011;23161;51.250;5.554;2024-03-23T06:22:08;31.23;;;15.10;;
37273;SDS011;23161;51.250;5.554;2024-03-23T06:23:40;21.48;;;14.35;;
37273;SDS011;23161;51.250;5.554;2024-03-23T06:25:11;16.45;;;11.77;;
37273;SDS011;23161;51.250;5.554;2024-03-23T06:26:42;25.23;;;13.70;;
37273;SDS011;23161;51.250;5.554;2024-03-23T06:28:15;24.52;;;15.25;;
37273;SDS011;23161;51.250;5.554;2024-03-23T06:29:46;17.25;;;12.25;;
37273;SDS011;23161;51.250;5.554;2024-03-23T06:31:17;21.63;;;13.13;;
37273;SDS011;23161;51.250;5.554;2024-03-23T06:32:49;21.20;;;11.70;;
37273;SDS011;23161;51.250;5.554;2024-03-23T06:34:20;17.70;;;13.40;;
37273;SDS011;23161;51.250;5.554;2024-03-23T06:35:53;19.40;;;12.40;;
37273;SDS011;23161;51.250;5.554;2024-03-23T06:37:24;21.60;;;10.23;;
37273;SDS011;23161;51.250;5.554;2024-03-23T06:38:56;19.20;;;10.73;;
37273;SDS011;23161;51.250;5.554;2024-03-23T06:40:27;22.77;;;10.50;;
37273;SDS011;23161;51.250;5.554;2024-03-23T06:41:59;22.88;;;11.43;;
37273;SDS011;23161;51.250;5.554;2024-03-23T06:43:30;22.58;;;9.35;;
37273;SDS011;23161;51.250;5.554;2024-03-23T06:45:01;9.98;;;8.95;;
37273;SDS011;23161;51.250;5.554;2024-03-23T06:46:32;24.35;;;9.40;;
37273;SDS011;23161;51.250;5.554;2024-03-23T06:48:03;17.83;;;8.10;;
37273;SDS011;23161;51.250;5.554;2024-03-23T06:49:34;9.63;;;5.45;;
37273;SDS011;23161;51.250;5.554;2024-03-23T06:51:05;9.65;;;6.97;;
37273;SDS011;23161;51.250;5.554;2024-03-23T06:52:37;13.07;;;7.15;;
37273;SDS011;23161;51.250;5.554;2024-03-23T06:54:08;17.65;;;6.53;;
37273;SDS011;23161;51.250;5.554;2024-03-23T06:55:39;11.00;;;7.05;;
37273;SDS011;23161;51.250;5.554;2024-03-23T06:57:11;11.38;;;4.63;;
37273;SDS011;23161;51.250;5.554;2024-03-23T06:58:42;4.07;;;3.17;;
37273;SDS011;23161;51.250;5.554;2024-03-23T07:00:13;7.45;;;3.53;;
37273;SDS011;23161;51.250;5.554;2024-03-23T07:01:46;8.30;;;4.88;;
37273;SDS011;23161;51.250;5.554;2024-03-23T07:03:17;9.27;;;4.18;;
37273;SDS011;23161;51.250;5.554;2024-03-23T07:04:48;13.07;;;4.15;;
37273;SDS011;23161;51.250;5.554;2024-03-23T07:06:19;7.10;;;3.95;;
37273;SDS011;23161;51.250;5.554;2024-03-23T07:07:51;14.25;;;5.43;;
37273;SDS011;23161;51.250;5.554;2024-03-23T07:09:22;5.70;;;4.80;;
37273;SDS011;23161;51.250;5.554;2024-03-23T07:10:56;12.00;;;5.45;;
37273;SDS011;23161;51.250;5.554;2024-03-23T07:12:28;6.75;;;3.75;;
37273;SDS011;23161;51.250;5.554;2024-03-23T07:13:59;16.05;;;5.20;;
37273;SDS011;23161;51.250;5.554;2024-03-23T07:15:30;8.88;;;3.88;;
37273;SDS011;23161;51.250;5.554;2024-03-23T07:17:01;8.85;;;4.45;;
37273;SDS011;23161;51.250;5.554;2024-03-23T07:18:32;6.45;;;5.70;;
37273;SDS011;23161;51.250;5.554;2024-03-23T07:20:04;5.10;;;3.88;;
37273;SDS011;23161;51.250;5.554;2024-03-23T07:21:40;9.50;;;5.18;;
37273;SDS011;23161;51.250;5.554;2024-03-23T07:23:11;11.65;;;5.53;;
37273;SDS011;23161;51.250;5.554;2024-03-23T07:24:43;8.52;;;4.22;;
37273;SDS011;23161;51.250;5.554;2024-03-23T07:26:15;22.75;;;6.10;;
37273;SDS011;23161;51.250;5.554;2024-03-23T07:27:46;7.45;;;3.55;;
37273;SDS011;23161;51.250;5.554;2024-03-23T07:29:17;12.63;;;5.28;;
37273;SDS011;23161;51.250;5.554;2024-03-23T07:31:00;15.20;;;5.22;;
37273;SDS011;23161;51.250;5.554;2024-03-23T07:32:31;7.70;;;3.50;;
37273;SDS011;23161;51.250;5.554;2024-03-23T07:34:02;15.55;;;6.40;;
37273;SDS011;23161;51.250;5.554;2024-03-23T07:35:33;21.38;;;4.82;;
37273;SDS011;23161;51.250;5.554;2024-03-23T07:37:05;6.05;;;3.30;;
37273;SDS011;23161;51.250;5.554;2024-03-23T07:38:36;11.73;;;4.57;;
37273;SDS011;23161;51.250;5.554;2024-03-23T07:40:07;13.27;;;4.28;;
37273;SDS011;23161;51.250;5.554;2024-03-23T07:41:39;13.50;;;3.75;;
37273;SDS011;23161;51.250;5.554;2024-03-23T07:43:10;4.30;;;3.90;;
37273;SDS011;23161;51.250;5.554;2024-03-23T07:44:41;9.32;;;3.58;;
37273;SDS011;23161;51.250;5.554;2024-03-23T07:46:15;5.25;;;3.15;;
37273;SDS011;23161;51.250;5.554;2024-03-23T07:47:47;9.60;;;6.57;;
37273;SDS011;23161;51.250;5.554;2024-03-23T07:49:18;23.42;;;5.93;;
37273;SDS011;23161;51.250;5.554;2024-03-23T07:51:05;14.82;;;4.20;;
37273;SDS011;23161;51.250;5.554;2024-03-23T07:52:36;9.25;;;4.78;;
37273;SDS011;23161;51.250;5.554;2024-03-23T07:54:07;11.23;;;3.97;;
37273;SDS011;23161;51.250;5.554;2024-03-23T07:55:38;10.25;;;5.10;;
37273;SDS011;23161;51.250;5.554;2024-03-23T07:57:09;4.78;;;4.20;;
37273;SDS011;23161;51.250;5.554;2024-03-23T07:58:41;4.25;;;3.45;;
37273;SDS011;23161;51.250;5.554;2024-03-23T08:00:12;8.05;;;3.88;;
37273;SDS011;23161;51.250;5.554;2024-03-23T08:01:44;8.65;;;4.28;;
37273;SDS011;23161;51.250;5.554;2024-03-23T08:03:15;15.20;;;4.68;;
37273;SDS011;23161;51.250;5.554;2024-03-23T08:04:46;7.75;;;3.15;;
37273;SDS011;23161;51.250;5.554;2024-03-23T08:06:17;13.07;;;4.20;;
37273;SDS011;23161;51.250;5.554;2024-03-23T08:07:53;10.65;;;5.82;;
37273;SDS011;23161;51.250;5.554;2024-03-23T08:09:24;10.10;;;4.45;;
37273;SDS011;23161;51.250;5.554;2024-03-23T08:10:56;8.32;;;4.57;;
37273;SDS011;23161;51.250;5.554;2024-03-23T08:12:27;6.20;;;4.22;;
37273;SDS011;23161;51.250;5.554;2024-03-23T08:13:58;11.50;;;6.43;;
37273;SDS011;23161;51.250;5.554;2024-03-23T08:15:32;9.63;;;4.05;;
37273;SDS011;23161;51.250;5.554;2024-03-23T08:17:03;9.00;;;4.57;;
37273;SDS011;23161;51.250;5.554;2024-03-23T08:18:34;9.80;;;3.90;;
37273;SDS011;23161;51.250;5.554;2024-03-23T08:20:06;10.20;;;3.88;;
37273;SDS011;23161;51.250;5.554;2024-03-23T08:21:38;10.25;;;5.03;;
37273;SDS011;23161;51.250;5.554;2024-03-23T08:23:09;8.70;;;5.15;;
37273;SDS011;23161;51.250;5.554;2024-03-23T08:24:40;3.53;;;3.17;;
37273;SDS011;23161;51.250;5.554;2024-03-23T08:26:14;8.55;;;4.22;;
37273;SDS011;23161;51.250;5.554;2024-03-23T08:27:46;5.95;;;2.80;;
37273;SDS011;23161;51.250;5.554;2024-03-23T08:29:17;8.70;;;3.65;;
37273;SDS011;23161;51.250;5.554;2024-03-23T08:30:48;13.63;;;4.38;;
37273;SDS011;23161;51.250;5.554;2024-03-23T08:32:19;7.68;;;4.43;;
37273;SDS011;23161;51.250;5.554;2024-03-23T08:33:51;8.45;;;2.63;;
37273;SDS011;23161;51.250;5.554;2024-03-23T08:35:22;3.92;;;2.67;;
37273;SDS011;23161;51.250;5.554;2024-03-23T08:36:53;6.53;;;3.22;;
37273;SDS011;23161;51.250;5.554;2024-03-23T08:38:25;10.27;;;2.75;;
37273;SDS011;23161;51.250;5.554;2024-03-23T08:39:56;6.72;;;2.90;;
37273;SDS011;23161;51.250;5.554;2024-03-23T08:41:27;6.85;;;2.63;;
37273;SDS011;23161;51.250;5.554;2024-03-23T08:42:58;11.50;;;4.72;;
37273;SDS011;23161;51.250;5.554;2024-03-23T08:44:29;9.02;;;2.47;;
37273;SDS011;23161;51.250;5.554;2024-03-23T08:46:06;5.50;;;2.97;;
37273;SDS011;23161;51.250;5.554;2024-03-23T08:47:38;10.70;;;3.03;;
37273;SDS011;23161;51.250;5.554;2024-03-23T08:49:09;5.55;;;2.95;;
37273;SDS011;23161;51.250;5.554;2024-03-23T08:50:41;8.88;;;3.05;;
37273;SDS011;23161;51.250;5.554;2024-03-23T08:52:12;14.13;;;3.03;;
37273;SDS011;23161;51.250;5.554;2024-03-23T08:53:44;5.72;;;3.08;;
37273;SDS011;23161;51.250;5.554;2024-03-23T08:55:15;3.97;;;3.17;;
37273;SDS011;23161;51.250;5.554;2024-03-23T08:56:46;5.30;;;2.58;;
37273;SDS011;23161;51.250;5.554;2024-03-23T08:58:17;7.53;;;3.53;;
37273;SDS011;23161;51.250;5.554;2024-03-23T08:59:50;4.07;;;2.40;;
37273;SDS011;23161;51.250;5.554;2024-03-23T09:01:21;8.32;;;3.80;;
37273;SDS011;23161;51.250;5.554;2024-03-23T09:02:52;10.45;;;4.10;;
37273;SDS011;23161;51.250;5.554;2024-03-23T09:04:24;3.92;;;2.88;;
37273;SDS011;23161;51.250;5.554;2024-03-23T09:05:55;5.35;;;2.90;;
37273;SDS011;23161;51.250;5.554;2024-03-23T09:07:26;10.38;;;3.38;;
37273;SDS011;23161;51.250;5.554;2024-03-23T09:08:57;9.90;;;2.40;;
37273;SDS011;23161;51.250;5.554;2024-03-23T09:10:28;13.32;;;3.42;;
37273;SDS011;23161;51.250;5.554;2024-03-23T09:11:59;2.42;;;2.22;;
37273;SDS011;23161;51.250;5.554;2024-03-23T09:13:30;5.60;;;3.67;;
37273;SDS011;23161;51.250;5.554;2024-03-23T09:15:02;16.65;;;5.63;;
37273;SDS011;23161;51.250;5.554;2024-03-23T09:16:33;8.40;;;3.47;;
37273;SDS011;23161;51.250;5.554;2024-03-23T09:18:04;10.57;;;4.38;;
37273;SDS011;23161;51.250;5.554;2024-03-23T09:19:35;5.30;;;1.90;;
37273;SDS011;23161;51.250;5.554;2024-03-23T09:21:12;5.00;;;3.10;;
37273;SDS011;23161;51.250;5.554;2024-03-23T09:22:45;5.80;;;3.28;;
37273;SDS011;23161;51.250;5.554;2024-03-23T09:24:16;6.13;;;3.33;;
37273;SDS011;23161;51.250;5.554;2024-03-23T09:25:47;8.85;;;3.40;;
37273;SDS011;23161;51.250;5.554;2024-03-23T09:27:18;5.60;;;1.83;;
37273;SDS011;23161;51.250;5.554;2024-03-23T09:28:49;10.20;;;1.95;;
37273;SDS011;23161;51.250;5.554;2024-03-23T09:30:20;1.38;;;0.85;;
37273;SDS011;23161;51.250;5.554;2024-03-23T09:31:51;1.85;;;1.27;;
37273;SDS011;23161;51.250;5.554;2024-03-23T09:33:22;8.43;;;1.90;;
37273;SDS011;23161;51.250;5.554;2024-03-23T09:34:53;1.52;;;1.40;;
37273;SDS011;23161;51.250;5.554;2024-03-23T09:36:25;1.73;;;1.27;;
37273;SDS011;23161;51.250;5.554;2024-03-23T09:37:56;1.70;;;1.00;;
37273;SDS011;23161;51.250;5.554;2024-03-23T09:39:27;5.10;;;2.03;;
37273;SDS011;23161;51.250;5.554;2024-03-23T09:40:58;4.88;;;2.72;;
37273;SDS011;23161;51.250;5.554;2024-03-23T09:42:29;2.17;;;1.42;;
37273;SDS011;23161;51.250;5.554;2024-03-23T09:44:01;1.60;;;1.27;;
37273;SDS011;23161;51.250;5.554;2024-03-23T09:45:32;1.98;;;1.42;;
37273;SDS011;23161;51.250;5.554;2024-03-23T09:47:04;5.22;;;2.17;;
37273;SDS011;23161;51.250;5.554;2024-03-23T09:48:35;8.35;;;1.65;;
37273;SDS011;23161;51.250;5.554;2024-03-23T09:50:07;2.17;;;1.20;;
37273;SDS011;23161;51.250;5.554;2024-03-23T09:51:39;2.90;;;2.70;;
37273;SDS011;23161;51.250;5.554;2024-03-23T09:53:11;1.60;;;1.33;;
37273;SDS011;23161;51.250;5.554;2024-03-23T09:54:42;1.25;;;1.23;;
37273;SDS011;23161;51.250;5.554;2024-03-23T09:56:13;2.03;;;1.92;;
37273;SDS011;23161;51.250;5.554;2024-03-23T09:57:47;6.20;;;1.65;;
37273;SDS011;23161;51.250;5.554;2024-03-23T09:59:18;5.70;;;2.58;;